sensor_id;sensor_type;location;lat;lon;timestamp;temperature;humidity
76838;DHT22;65797;47.352;8.164;2024-01-15T00:00:19;1.10;1.00
76838;DHT22;65797;47.352;8.164;2024-01-15T00:02:45;1.00;1.00
76838;DHT22;65797;47.352;8.164;2024-01-15T00:05:10;1.00;1.00
76838;DHT22;65797;47.352;8.164;2024-01-15T00:07:36;1.00;1.00
76838;DHT22;65797;47.352;8.164;2024-01-15T00:10:02;1.00;1.00
76838;DHT22;65797;47.352;8.164;2024-01-15T00:12:28;1.00;1.00
76838;DHT22;65797;47.352;8.164;2024-01-15T00:14:54;1.00;1.00
76838;DHT22;65797;47.352;8.164;2024-01-15T00:17:19;1.10;1.00
76838;DHT22;65797;47.352;8.164;2024-01-15T00:19:45;1.10;1.00
76838;DHT22;65797;47.352;8.164;2024-01-15T00:22:11;1.10;1.00
76838;DHT22;65797;47.352;8.164;2024-01-15T00:24:36;1.10;1.00
76838;DHT22;65797;47.352;8.164;2024-01-15T00:27:02;1.10;1.00
76838;DHT22;65797;47.352;8.164;2024-01-15T00:29:28;1.00;1.00
76838;DHT22;65797;47.352;8.164;2024-01-15T00:31:54;1.00;1.00
76838;DHT22;65797;47.352;8.164;2024-01-15T00:34:19;1.10;1.00
76838;DHT22;65797;47.352;8.164;2024-01-15T00:36:45;1.10;1.00
76838;DHT22;65797;47.352;8.164;2024-01-15T00:39:11;1.10;1.00
76838;DHT22;65797;47.352;8.164;2024-01-15T00:41:37;1.10;1.00
76838;DHT22;65797;47.352;8.164;2024-01-15T00:44:02;1.10;1.00
76838;DHT22;65797;47.352;8.164;2024-01-15T00:46:28;1.10;1.00
76838;DHT22;65797;47.352;8.164;2024-01-15T00:48:54;1.10;1.00
76838;DHT22;65797;47.352;8.164;2024-01-15T00:51:20;1.10;1.00
76838;DHT22;65797;47.352;8.164;2024-01-15T00:53:46;1.10;1.00
76838;DHT22;65797;47.352;8.164;2024-01-15T00:56:11;1.10;1.00
76838;DHT22;65797;47.352;8.164;2024-01-15T00:58:37;1.10;1.00
76838;DHT22;65797;47.352;8.164;2024-01-15T01:01:03;1.10;1.00
76838;DHT22;65797;47.352;8.164;2024-01-15T01:03:28;1.10;1.00
76838;DHT22;65797;47.352;8.164;2024-01-15T01:05:54;1.10;1.00
76838;DHT22;65797;47.352;8.164;2024-01-15T01:08:20;1.10;99.90
76838;DHT22;65797;47.352;8.164;2024-01-15T01:10:45;1.00;99.90
76838;DHT22;65797;47.352;8.164;2024-01-15T01:13:11;1.00;99.90
76838;DHT22;65797;47.352;8.164;2024-01-15T01:15:37;0.90;99.90
76838;DHT22;65797;47.352;8.164;2024-01-15T01:18:04;0.90;99.90
76838;DHT22;65797;47.352;8.164;2024-01-15T01:20:30;0.80;99.90
76838;DHT22;65797;47.352;8.164;2024-01-15T01:22:55;0.80;99.90
76838;DHT22;65797;47.352;8.164;2024-01-15T01:25:21;0.70;99.90
76838;DHT22;65797;47.352;8.164;2024-01-15T01:27:47;0.70;99.90
76838;DHT22;65797;47.352;8.164;2024-01-15T01:30:13;0.70;99.90
76838;DHT22;65797;47.352;8.164;2024-01-15T01:32:38;0.60;99.90
76838;DHT22;65797;47.352;8.164;2024-01-15T01:35:04;0.60;99.90
76838;DHT22;65797;47.352;8.164;2024-01-15T01:37:30;0.50;30.10
76838;DHT22;65797;47.352;8.164;2024-01-15T01:39:56;0.60;61.50
76838;DHT22;65797;47.352;8.164;2024-01-15T01:42:22;0.50;53.40
76838;DHT22;65797;47.352;8.164;2024-01-15T01:44:47;0.50;28.60
76838;DHT22;65797;47.352;8.164;2024-01-15T01:47:13;0.50;51.70
76838;DHT22;65797;47.352;8.164;2024-01-15T01:49:40;0.50;1.00
76838;DHT22;65797;47.352;8.164;2024-01-15T01:52:06;0.50;1.00
76838;DHT22;65797;47.352;8.164;2024-01-15T01:54:33;0.40;1.00
76838;DHT22;65797;47.352;8.164;2024-01-15T01:56:59;0.40;1.00
76838;DHT22;65797;47.352;8.164;2024-01-15T01:59:27;0.40;1.00
76838;DHT22;65797;47.352;8.164;2024-01-15T02:01:54;0.40;1.00
76838;DHT22;65797;47.352;8.164;2024-01-15T02:04:21;0.40;1.00
76838;DHT22;65797;47.352;8.164;2024-01-15T02:06:48;0.40;1.00
76838;DHT22;65797;47.352;8.164;2024-01-15T02:09:14;0.40;1.00
76838;DHT22;65797;47.352;8.164;2024-01-15T02:11:41;0.30;1.00
76838;DHT22;65797;47.352;8.164;2024-01-15T02:14:08;0.30;1.00
76838;DHT22;65797;47.352;8.164;2024-01-15T02:16:34;0.30;1.00
76838;DHT22;65797;47.352;8.164;2024-01-15T02:19:00;0.30;1.00
76838;DHT22;65797;47.352;8.164;2024-01-15T02:21:25;0.30;1.00
76838;DHT22;65797;47.352;8.164;2024-01-15T02:23:56;0.30;99.90
76838;DHT22;65797;47.352;8.164;2024-01-15T02:26:23;0.20;99.90
76838;DHT22;65797;47.352;8.164;2024-01-15T02:28:49;0.10;99.90
76838;DHT22;65797;47.352;8.164;2024-01-15T02:31:15;0.10;99.90
76838;DHT22;65797;47.352;8.164;2024-01-15T02:33:42;0.10;99.90
76838;DHT22;65797;47.352;8.164;2024-01-15T02:36:09;0.10;99.90
76838;DHT22;65797;47.352;8.164;2024-01-15T02:38:34;0.10;99.90
76838;DHT22;65797;47.352;8.164;2024-01-15T02:41:00;0.10;99.90
76838;DHT22;65797;47.352;8.164;2024-01-15T02:43:26;0.00;99.90
76838;DHT22;65797;47.352;8.164;2024-01-15T02:45:51;0.00;99.90
76838;DHT22;65797;47.352;8.164;2024-01-15T02:48:17;0.00;99.90
76838;DHT22;65797;47.352;8.164;2024-01-15T02:50:43;0.00;99.90
76838;DHT22;65797;47.352;8.164;2024-01-15T02:53:08;0.00;1.00
76838;DHT22;65797;47.352;8.164;2024-01-15T02:55:34;0.00;1.00
76838;DHT22;65797;47.352;8.164;2024-01-15T02:58:00;0.00;1.00
76838;DHT22;65797;47.352;8.164;2024-01-15T03:00:25;0.00;1.00
76838;DHT22;65797;47.352;8.164;2024-01-15T03:02:51;0.00;99.90
76838;DHT22;65797;47.352;8.164;2024-01-15T03:05:17;0.00;99.90
76838;DHT22;65797;47.352;8.164;2024-01-15T03:07:43;0.00;1.00
76838;DHT22;65797;47.352;8.164;2024-01-15T03:10:09;0.00;99.90
76838;DHT22;65797;47.352;8.164;2024-01-15T03:12:35;0.00;99.90
76838;DHT22;65797;47.352;8.164;2024-01-15T03:15:01;0.00;99.90
76838;DHT22;65797;47.352;8.164;2024-01-15T03:17:27;0.00;99.90
76838;DHT22;65797;47.352;8.164;2024-01-15T03:19:52;0.00;99.90
76838;DHT22;65797;47.352;8.164;2024-01-15T03:22:18;0.00;99.90
76838;DHT22;65797;47.352;8.164;2024-01-15T03:24:44;0.00;99.90
76838;DHT22;65797;47.352;8.164;2024-01-15T03:27:10;0.10;99.90
76838;DHT22;65797;47.352;8.164;2024-01-15T03:29:35;0.10;99.90
76838;DHT22;65797;47.352;8.164;2024-01-15T03:32:01;0.10;99.90
76838;DHT22;65797;47.352;8.164;2024-01-15T03:34:27;0.10;99.90
76838;DHT22;65797;47.352;8.164;2024-01-15T03:36:52;0.10;99.90
76838;DHT22;65797;47.352;8.164;2024-01-15T03:39:18;0.10;99.90
76838;DHT22;65797;47.352;8.164;2024-01-15T03:41:44;0.10;99.90
76838;DHT22;65797;47.352;8.164;2024-01-15T03:44:10;0.10;99.90
76838;DHT22;65797;47.352;8.164;2024-01-15T03:46:36;0.10;99.90
76838;DHT22;65797;47.352;8.164;2024-01-15T03:49:01;0.10;99.90
76838;DHT22;65797;47.352;8.164;2024-01-15T03:51:27;0.10;99.90
76838;DHT22;65797;47.352;8.164;2024-01-15T03:53:53;0.10;99.90
76838;DHT22;65797;47.352;8.164;2024-01-15T03:56:19;0.10;99.90
76838;DHT22;65797;47.352;8.164;2024-01-15T03:58:44;0.10;99.90
76838;DHT22;65797;47.352;8.164;2024-01-15T04:01:10;0.10;99.90
76838;DHT22;65797;47.352;8.164;2024-01-15T04:03:36;0.10;99.90
76838;DHT22;65797;47.352;8.164;2024-01-15T04:06:02;0.10;99.90
76838;DHT22;65797;47.352;8.164;2024-01-15T04:08:28;0.10;99.90
76838;DHT22;65797;47.352;8.164;2024-01-15T04:10:55;0.10;99.90
76838;DHT22;65797;47.352;8.164;2024-01-15T04:13:21;0.10;99.90
76838;DHT22;65797;47.352;8.164;2024-01-15T04:15:47;0.10;99.90
76838;DHT22;65797;47.352;8.164;2024-01-15T04:18:13;0.10;99.90
76838;DHT22;65797;47.352;8.164;2024-01-15T04:20:38;0.10;99.90
76838;DHT22;65797;47.352;8.164;2024-01-15T04:23:04;0.20;99.90
76838;DHT22;65797;47.352;8.164;2024-01-15T04:25:30;0.10;99.90
76838;DHT22;65797;47.352;8.164;2024-01-15T04:27:56;0.20;99.90
76838;DHT22;65797;47.352;8.164;2024-01-15T04:30:22;0.20;99.90
76838;DHT22;65797;47.352;8.164;2024-01-15T04:32:47;0.20;90.70
76838;DHT22;65797;47.352;8.164;2024-01-15T04:35:13;0.20;1.00
76838;DHT22;65797;47.352;8.164;2024-01-15T04:37:39;0.20;7.10
76838;DHT22;65797;47.352;8.164;2024-01-15T04:40:06;0.20;99.90
76838;DHT22;65797;47.352;8.164;2024-01-15T04:42:32;0.20;46.00
76838;DHT22;65797;47.352;8.164;2024-01-15T04:44:58;0.20;58.20
76838;DHT22;65797;47.352;8.164;2024-01-15T04:47:24;0.20;55.00
76838;DHT22;65797;47.352;8.164;2024-01-15T04:49:50;0.20;99.90
76838;DHT22;65797;47.352;8.164;2024-01-15T04:52:15;0.20;99.90
76838;DHT22;65797;47.352;8.164;2024-01-15T04:54:41;0.30;97.90
76838;DHT22;65797;47.352;8.164;2024-01-15T04:57:08;0.30;1.00
76838;DHT22;65797;47.352;8.164;2024-01-15T04:59:34;0.30;1.00
76838;DHT22;65797;47.352;8.164;2024-01-15T05:01:59;0.30;1.00
76838;DHT22;65797;47.352;8.164;2024-01-15T05:04:25;0.30;1.00
76838;DHT22;65797;47.352;8.164;2024-01-15T05:06:51;0.30;1.00
76838;DHT22;65797;47.352;8.164;2024-01-15T05:09:16;0.40;1.00
76838;DHT22;65797;47.352;8.164;2024-01-15T05:11:43;0.40;1.00
76838;DHT22;65797;47.352;8.164;2024-01-15T05:14:09;0.30;1.00
76838;DHT22;65797;47.352;8.164;2024-01-15T05:16:35;0.30;1.00
76838;DHT22;65797;47.352;8.164;2024-01-15T05:19:03;0.30;1.00
76838;DHT22;65797;47.352;8.164;2024-01-15T05:21:29;0.30;1.00
76838;DHT22;65797;47.352;8.164;2024-01-15T05:23:54;0.30;1.00
76838;DHT22;65797;47.352;8.164;2024-01-15T05:26:20;0.40;1.00
76838;DHT22;65797;47.352;8.164;2024-01-15T05:28:46;0.40;1.00
76838;DHT22;65797;47.352;8.164;2024-01-15T05:31:13;0.40;1.00
76838;DHT22;65797;47.352;8.164;2024-01-15T05:33:38;0.40;1.00
76838;DHT22;65797;47.352;8.164;2024-01-15T05:36:04;0.40;1.00
76838;DHT22;65797;47.352;8.164;2024-01-15T05:38:30;0.40;1.00
76838;DHT22;65797;47.352;8.164;2024-01-15T05:40:56;0.50;1.00
76838;DHT22;65797;47.352;8.164;2024-01-15T05:43:21;0.50;1.00
76838;DHT22;65797;47.352;8.164;2024-01-15T05:45:47;0.40;1.00
76838;DHT22;65797;47.352;8.164;2024-01-15T05:48:13;0.40;1.00
76838;DHT22;65797;47.352;8.164;2024-01-15T05:50:39;0.40;1.00
76838;DHT22;65797;47.352;8.164;2024-01-15T05:53:04;0.40;1.00
76838;DHT22;65797;47.352;8.164;2024-01-15T05:55:30;0.40;1.00
76838;DHT22;65797;47.352;8.164;2024-01-15T05:57:56;0.40;1.00
76838;DHT22;65797;47.352;8.164;2024-01-15T06:00:22;0.40;1.00
76838;DHT22;65797;47.352;8.164;2024-01-15T06:02:51;0.40;1.00
76838;DHT22;65797;47.352;8.164;2024-01-15T06:05:16;0.40;1.00
76838;DHT22;65797;47.352;8.164;2024-01-15T06:07:42;0.40;1.00
76838;DHT22;65797;47.352;8.164;2024-01-15T06:10:08;0.40;1.00
76838;DHT22;65797;47.352;8.164;2024-01-15T06:12:34;0.40;1.00
76838;DHT22;65797;47.352;8.164;2024-01-15T06:15:00;0.40;1.00
76838;DHT22;65797;47.352;8.164;2024-01-15T06:17:26;0.40;1.00
76838;DHT22;65797;47.352;8.164;2024-01-15T06:19:54;0.40;1.00
76838;DHT22;65797;47.352;8.164;2024-01-15T06:22:20;0.40;1.00
76838;DHT22;65797;47.352;8.164;2024-01-15T06:24:45;0.40;1.00
76838;DHT22;65797;47.352;8.164;2024-01-15T06:27:11;0.40;1.00
76838;DHT22;65797;47.352;8.164;2024-01-15T06:29:38;0.40;1.00
76838;DHT22;65797;47.352;8.164;2024-01-15T06:32:04;0.40;1.00
76838;DHT22;65797;47.352;8.164;2024-01-15T06:34:30;0.40;1.00
76838;DHT22;65797;47.352;8.164;2024-01-15T06:36:55;0.40;1.00
76838;DHT22;65797;47.352;8.164;2024-01-15T06:39:21;0.40;1.00
76838;DHT22;65797;47.352;8.164;2024-01-15T06:41:47;0.40;1.00
76838;DHT22;65797;47.352;8.164;2024-01-15T06:44:13;0.40;1.00
76838;DHT22;65797;47.352;8.164;2024-01-15T06:46:45;0.50;1.00
76838;DHT22;65797;47.352;8.164;2024-01-15T06:49:11;0.50;1.00
76838;DHT22;65797;47.352;8.164;2024-01-15T06:51:37;0.50;99.90
76838;DHT22;65797;47.352;8.164;2024-01-15T06:54:03;0.50;99.90
76838;DHT22;65797;47.352;8.164;2024-01-15T06:56:29;0.50;99.90
76838;DHT22;65797;47.352;8.164;2024-01-15T06:58:55;0.50;99.90
76838;DHT22;65797;47.352;8.164;2024-01-15T07:01:20;0.50;99.90
76838;DHT22;65797;47.352;8.164;2024-01-15T07:03:46;0.50;99.90
76838;DHT22;65797;47.352;8.164;2024-01-15T07:06:12;0.50;99.90
76838;DHT22;65797;47.352;8.164;2024-01-15T07:08:39;0.50;99.90
76838;DHT22;65797;47.352;8.164;2024-01-15T07:11:05;0.50;99.90
76838;DHT22;65797;47.352;8.164;2024-01-15T07:13:31;0.50;99.90
76838;DHT22;65797;47.352;8.164;2024-01-15T07:15:57;0.50;99.90
76838;DHT22;65797;47.352;8.164;2024-01-15T07:18:23;0.50;99.90
76838;DHT22;65797;47.352;8.164;2024-01-15T07:20:49;0.50;99.90
76838;DHT22;65797;47.352;8.164;2024-01-15T07:23:15;0.50;99.90
76838;DHT22;65797;47.352;8.164;2024-01-15T07:25:40;0.50;99.90
76838;DHT22;65797;47.352;8.164;2024-01-15T07:28:06;0.50;99.90
76838;DHT22;65797;47.352;8.164;2024-01-15T07:30:32;0.50;99.90
76838;DHT22;65797;47.352;8.164;2024-01-15T07:32:57;0.50;99.90
76838;DHT22;65797;47.352;8.164;2024-01-15T07:35:23;0.50;99.90
76838;DHT22;65797;47.352;8.164;2024-01-15T07:37:49;0.60;99.90
76838;DHT22;65797;47.352;8.164;2024-01-15T07:40:14;0.60;99.90
76838;DHT22;65797;47.352;8.164;2024-01-15T07:42:40;0.60;99.90
76838;DHT22;65797;47.352;8.164;2024-01-15T10:33:52;1.90;99.90
76838;DHT22;65797;47.352;8.164;2024-01-15T10:36:18;2.00;99.90
76838;DHT22;65797;47.352;8.164;2024-01-15T10:38:44;2.00;99.90
76838;DHT22;65797;47.352;8.164;2024-01-15T10:41:10;2.00;99.90
76838;DHT22;65797;47.352;8.164;2024-01-15T10:43:36;2.10;99.90
76838;DHT22;65797;47.352;8.164;2024-01-15T10:46:02;2.10;99.90
76838;DHT22;65797;47.352;8.164;2024-01-15T10:48:29;2.10;99.90
76838;DHT22;65797;47.352;8.164;2024-01-15T10:50:57;2.20;99.90
76838;DHT22;65797;47.352;8.164;2024-01-15T10:53:24;2.20;99.90
76838;DHT22;65797;47.352;8.164;2024-01-15T10:55:53;2.30;99.90
76838;DHT22;65797;47.352;8.164;2024-01-15T10:58:20;2.30;99.90
76838;DHT22;65797;47.352;8.164;2024-01-15T11:00:46;2.30;99.90
76838;DHT22;65797;47.352;8.164;2024-01-15T11:03:12;2.40;99.90
76838;DHT22;65797;47.352;8.164;2024-01-15T11:05:41;2.40;99.90
76838;DHT22;65797;47.352;8.164;2024-01-15T11:08:17;2.50;99.90
76838;DHT22;65797;47.352;8.164;2024-01-15T11:10:53;2.50;99.90
76838;DHT22;65797;47.352;8.164;2024-01-15T11:13:39;2.50;99.90
76838;DHT22;65797;47.352;8.164;2024-01-15T11:16:07;2.60;99.90
76838;DHT22;65797;47.352;8.164;2024-01-15T11:18:40;2.60;99.90
76838;DHT22;65797;47.352;8.164;2024-01-15T11:26:43;2.60;99.90
76838;DHT22;65797;47.352;8.164;2024-01-15T11:32:09;2.70;99.90
76838;DHT22;65797;47.352;8.164;2024-01-15T11:37:17;2.80;99.90
76838;DHT22;65797;47.352;8.164;2024-01-15T11:39:44;2.90;99.90
76838;DHT22;65797;47.352;8.164;2024-01-15T11:42:10;2.90;99.90
76838;DHT22;65797;47.352;8.164;2024-01-15T11:44:37;2.90;99.90
76838;DHT22;65797;47.352;8.164;2024-01-15T11:47:08;2.90;99.90
76838;DHT22;65797;47.352;8.164;2024-01-15T11:50:02;2.90;99.90
76838;DHT22;65797;47.352;8.164;2024-01-15T11:52:36;2.90;99.90
76838;DHT22;65797;47.352;8.164;2024-01-15T12:49:25;3.10;99.90
76838;DHT22;65797;47.352;8.164;2024-01-15T12:51:56;3.20;99.90
76838;DHT22;65797;47.352;8.164;2024-01-15T12:54:23;3.30;99.90
76838;DHT22;65797;47.352;8.164;2024-01-15T12:56:49;3.30;99.90
76838;DHT22;65797;47.352;8.164;2024-01-15T13:07:14;3.40;99.90
76838;DHT22;65797;47.352;8.164;2024-01-15T13:09:43;3.40;99.90
76838;DHT22;65797;47.352;8.164;2024-01-15T13:12:09;3.50;99.90
76838;DHT22;65797;47.352;8.164;2024-01-15T13:14:35;3.50;99.90
76838;DHT22;65797;47.352;8.164;2024-01-15T13:17:02;3.50;99.90
76838;DHT22;65797;47.352;8.164;2024-01-15T13:19:28;3.50;99.90
76838;DHT22;65797;47.352;8.164;2024-01-15T13:21:54;3.50;99.90
76838;DHT22;65797;47.352;8.164;2024-01-15T13:24:21;3.30;99.90
76838;DHT22;65797;47.352;8.164;2024-01-15T13:26:47;3.30;99.90
76838;DHT22;65797;47.352;8.164;2024-01-15T13:29:13;3.40;99.90
76838;DHT22;65797;47.352;8.164;2024-01-15T13:31:39;3.30;99.90
76838;DHT22;65797;47.352;8.164;2024-01-15T13:34:05;3.30;99.90
76838;DHT22;65797;47.352;8.164;2024-01-15T13:36:32;3.30;99.90
76838;DHT22;65797;47.352;8.164;2024-01-15T13:38:58;3.30;99.90
76838;DHT22;65797;47.352;8.164;2024-01-15T13:41:24;3.30;99.90
76838;DHT22;65797;47.352;8.164;2024-01-15T13:43:54;3.20;99.90
76838;DHT22;65797;47.352;8.164;2024-01-15T13:46:23;3.20;99.90
76838;DHT22;65797;47.352;8.164;2024-01-15T13:48:49;3.10;99.90
76838;DHT22;65797;47.352;8.164;2024-01-15T13:51:15;3.10;99.90
76838;DHT22;65797;47.352;8.164;2024-01-15T13:53:41;3.10;99.90
76838;DHT22;65797;47.352;8.164;2024-01-15T13:56:07;3.10;99.90
76838;DHT22;65797;47.352;8.164;2024-01-15T13:58:33;3.10;99.90
76838;DHT22;65797;47.352;8.164;2024-01-15T14:01:00;3.10;99.90
76838;DHT22;65797;47.352;8.164;2024-01-15T14:03:25;3.10;99.90
76838;DHT22;65797;47.352;8.164;2024-01-15T14:05:52;3.10;99.90
76838;DHT22;65797;47.352;8.164;2024-01-15T14:08:18;3.10;99.90
76838;DHT22;65797;47.352;8.164;2024-01-15T14:10:43;3.10;99.90
76838;DHT22;65797;47.352;8.164;2024-01-15T14:13:10;3.10;99.90
76838;DHT22;65797;47.352;8.164;2024-01-15T14:15:36;3.00;99.90
76838;DHT22;65797;47.352;8.164;2024-01-15T14:18:02;2.90;99.90
76838;DHT22;65797;47.352;8.164;2024-01-15T14:20:28;2.90;99.90
76838;DHT22;65797;47.352;8.164;2024-01-15T14:22:54;2.90;99.90
76838;DHT22;65797;47.352;8.164;2024-01-15T14:25:20;3.00;99.90
76838;DHT22;65797;47.352;8.164;2024-01-15T14:27:46;2.90;99.90
76838;DHT22;65797;47.352;8.164;2024-01-15T14:30:13;2.80;99.90
76838;DHT22;65797;47.352;8.164;2024-01-15T14:32:40;2.80;99.90
76838;DHT22;65797;47.352;8.164;2024-01-15T14:35:06;2.80;99.90
76838;DHT22;65797;47.352;8.164;2024-01-15T14:37:38;2.80;99.90
76838;DHT22;65797;47.352;8.164;2024-01-15T14:40:08;2.80;99.90
76838;DHT22;65797;47.352;8.164;2024-01-15T14:42:37;2.80;99.90
76838;DHT22;65797;47.352;8.164;2024-01-15T14:45:05;2.70;99.90
76838;DHT22;65797;47.352;8.164;2024-01-15T14:47:37;2.80;99.90
76838;DHT22;65797;47.352;8.164;2024-01-15T14:50:03;2.70;99.90
76838;DHT22;65797;47.352;8.164;2024-01-15T15:08:28;2.50;99.90
76838;DHT22;65797;47.352;8.164;2024-01-15T16:13:02;1.40;99.90
76838;DHT22;65797;47.352;8.164;2024-01-15T16:15:28;1.40;99.90
76838;DHT22;65797;47.352;8.164;2024-01-15T16:17:54;1.40;99.90
76838;DHT22;65797;47.352;8.164;2024-01-15T16:20:20;1.30;99.90
76838;DHT22;65797;47.352;8.164;2024-01-15T16:22:46;1.40;99.90
76838;DHT22;65797;47.352;8.164;2024-01-15T16:25:12;1.30;99.90
76838;DHT22;65797;47.352;8.164;2024-01-15T16:27:38;1.30;99.90
76838;DHT22;65797;47.352;8.164;2024-01-15T16:30:04;1.20;99.90
76838;DHT22;65797;47.352;8.164;2024-01-15T16:32:32;1.20;99.90
76838;DHT22;65797;47.352;8.164;2024-01-15T16:34:57;1.20;99.90
76838;DHT22;65797;47.352;8.164;2024-01-15T16:37:23;1.20;99.90
76838;DHT22;65797;47.352;8.164;2024-01-15T16:39:49;1.10;99.90
76838;DHT22;65797;47.352;8.164;2024-01-15T16:42:14;1.20;99.90
76838;DHT22;65797;47.352;8.164;2024-01-15T16:44:41;1.20;99.90
76838;DHT22;65797;47.352;8.164;2024-01-15T16:47:07;1.20;99.90
76838;DHT22;65797;47.352;8.164;2024-01-15T16:49:32;1.20;99.90
76838;DHT22;65797;47.352;8.164;2024-01-15T16:51:58;1.20;99.90
76838;DHT22;65797;47.352;8.164;2024-01-15T16:54:25;1.20;99.90
76838;DHT22;65797;47.352;8.164;2024-01-15T16:56:51;1.10;99.90
76838;DHT22;65797;47.352;8.164;2024-01-15T16:59:16;1.10;99.90
76838;DHT22;65797;47.352;8.164;2024-01-15T17:01:42;1.10;99.90
76838;DHT22;65797;47.352;8.164;2024-01-15T17:04:09;1.00;99.90
76838;DHT22;65797;47.352;8.164;2024-01-15T17:06:35;1.00;99.90
76838;DHT22;65797;47.352;8.164;2024-01-15T17:09:00;1.00;99.90
76838;DHT22;65797;47.352;8.164;2024-01-15T17:11:26;0.90;99.90
76838;DHT22;65797;47.352;8.164;2024-01-15T17:13:53;0.90;99.90
76838;DHT22;65797;47.352;8.164;2024-01-15T17:16:19;0.90;99.90
76838;DHT22;65797;47.352;8.164;2024-01-15T17:18:44;0.90;99.90
76838;DHT22;65797;47.352;8.164;2024-01-15T17:21:10;0.90;99.90
76838;DHT22;65797;47.352;8.164;2024-01-15T17:28:47;0.80;99.90
76838;DHT22;65797;47.352;8.164;2024-01-15T17:31:13;0.80;99.90
76838;DHT22;65797;47.352;8.164;2024-01-15T17:33:39;0.80;99.90
76838;DHT22;65797;47.352;8.164;2024-01-15T17:36:05;0.80;99.90
76838;DHT22;65797;47.352;8.164;2024-01-15T17:38:31;0.80;99.90
76838;DHT22;65797;47.352;8.164;2024-01-15T17:40:58;0.70;99.90
76838;DHT22;65797;47.352;8.164;2024-01-15T17:43:24;0.70;99.90
76838;DHT22;65797;47.352;8.164;2024-01-15T17:45:50;0.70;99.90
76838;DHT22;65797;47.352;8.164;2024-01-15T17:48:17;0.60;99.90
76838;DHT22;65797;47.352;8.164;2024-01-15T17:50:42;0.60;99.90
76838;DHT22;65797;47.352;8.164;2024-01-15T17:53:08;0.60;99.90
76838;DHT22;65797;47.352;8.164;2024-01-15T17:55:36;0.60;99.90
76838;DHT22;65797;47.352;8.164;2024-01-15T17:58:01;0.60;99.90
76838;DHT22;65797;47.352;8.164;2024-01-15T18:00:27;0.50;99.90
76838;DHT22;65797;47.352;8.164;2024-01-15T18:02:53;0.60;99.90
76838;DHT22;65797;47.352;8.164;2024-01-15T18:05:21;0.60;99.90
76838;DHT22;65797;47.352;8.164;2024-01-15T18:07:46;0.60;99.90
76838;DHT22;65797;47.352;8.164;2024-01-15T18:10:12;0.60;99.90
76838;DHT22;65797;47.352;8.164;2024-01-15T18:12:38;0.50;99.90
76838;DHT22;65797;47.352;8.164;2024-01-15T18:15:05;0.50;99.90
76838;DHT22;65797;47.352;8.164;2024-01-15T18:17:30;0.60;99.90
76838;DHT22;65797;47.352;8.164;2024-01-15T18:19:58;0.50;99.90
76838;DHT22;65797;47.352;8.164;2024-01-15T18:22:24;0.60;99.90
76838;DHT22;65797;47.352;8.164;2024-01-15T18:24:52;0.60;99.90
76838;DHT22;65797;47.352;8.164;2024-01-15T18:27:18;0.60;99.90
76838;DHT22;65797;47.352;8.164;2024-01-15T18:29:44;0.60;99.90
76838;DHT22;65797;47.352;8.164;2024-01-15T18:32:10;0.60;99.90
76838;DHT22;65797;47.352;8.164;2024-01-15T18:34:36;0.60;1.00
76838;DHT22;65797;47.352;8.164;2024-01-15T18:37:02;0.60;1.00
76838;DHT22;65797;47.352;8.164;2024-01-15T18:39:28;0.60;1.00
76838;DHT22;65797;47.352;8.164;2024-01-15T18:41:54;0.60;1.00
76838;DHT22;65797;47.352;8.164;2024-01-15T18:44:19;0.60;1.00
76838;DHT22;65797;47.352;8.164;2024-01-15T18:46:47;0.60;1.00
76838;DHT22;65797;47.352;8.164;2024-01-15T18:49:14;0.60;1.00
76838;DHT22;65797;47.352;8.164;2024-01-15T18:51:40;0.60;1.00
76838;DHT22;65797;47.352;8.164;2024-01-15T18:54:06;0.60;1.00
76838;DHT22;65797;47.352;8.164;2024-01-15T18:56:31;0.60;1.00
76838;DHT22;65797;47.352;8.164;2024-01-15T18:59:00;0.60;1.00
76838;DHT22;65797;47.352;8.164;2024-01-15T19:01:30;0.60;1.00
76838;DHT22;65797;47.352;8.164;2024-01-15T19:03:56;0.60;1.00
76838;DHT22;65797;47.352;8.164;2024-01-15T19:06:22;0.60;1.00
76838;DHT22;65797;47.352;8.164;2024-01-15T19:08:49;0.60;1.00
76838;DHT22;65797;47.352;8.164;2024-01-15T19:11:15;0.60;1.00
76838;DHT22;65797;47.352;8.164;2024-01-15T19:13:41;0.60;1.00
76838;DHT22;65797;47.352;8.164;2024-01-15T19:16:07;0.50;1.00
76838;DHT22;65797;47.352;8.164;2024-01-15T19:18:33;0.50;1.00
76838;DHT22;65797;47.352;8.164;2024-01-15T19:21:02;0.50;1.00
76838;DHT22;65797;47.352;8.164;2024-01-15T19:23:31;0.50;1.00
76838;DHT22;65797;47.352;8.164;2024-01-15T19:25:57;0.50;1.00
76838;DHT22;65797;47.352;8.164;2024-01-15T19:28:23;0.50;1.00
76838;DHT22;65797;47.352;8.164;2024-01-15T19:30:48;0.50;1.00
76838;DHT22;65797;47.352;8.164;2024-01-15T19:33:15;0.50;1.00
76838;DHT22;65797;47.352;8.164;2024-01-15T19:35:41;0.40;1.00
76838;DHT22;65797;47.352;8.164;2024-01-15T19:38:07;0.40;1.00
76838;DHT22;65797;47.352;8.164;2024-01-15T19:40:33;0.40;1.00
76838;DHT22;65797;47.352;8.164;2024-01-15T19:42:59;0.40;1.00
76838;DHT22;65797;47.352;8.164;2024-01-15T19:45:26;0.30;1.00
76838;DHT22;65797;47.352;8.164;2024-01-15T19:47:52;0.30;1.00
76838;DHT22;65797;47.352;8.164;2024-01-15T19:50:18;0.30;1.00
76838;DHT22;65797;47.352;8.164;2024-01-15T19:52:44;0.30;1.00
76838;DHT22;65797;47.352;8.164;2024-01-15T19:55:09;0.30;1.00
76838;DHT22;65797;47.352;8.164;2024-01-15T19:57:35;0.20;1.00
76838;DHT22;65797;47.352;8.164;2024-01-15T20:00:01;0.20;1.00
76838;DHT22;65797;47.352;8.164;2024-01-15T20:02:27;0.20;1.00
76838;DHT22;65797;47.352;8.164;2024-01-15T20:04:52;0.20;1.00
76838;DHT22;65797;47.352;8.164;2024-01-15T20:07:18;0.20;1.00
76838;DHT22;65797;47.352;8.164;2024-01-15T20:09:44;0.20;1.00
76838;DHT22;65797;47.352;8.164;2024-01-15T20:12:09;0.20;1.00
76838;DHT22;65797;47.352;8.164;2024-01-15T20:14:35;0.20;1.00
76838;DHT22;65797;47.352;8.164;2024-01-15T20:17:02;0.20;1.00
76838;DHT22;65797;47.352;8.164;2024-01-15T20:19:30;0.20;1.00
76838;DHT22;65797;47.352;8.164;2024-01-15T20:21:56;0.20;1.00
76838;DHT22;65797;47.352;8.164;2024-01-15T20:24:22;0.20;1.00
76838;DHT22;65797;47.352;8.164;2024-01-15T20:26:50;0.20;1.00
76838;DHT22;65797;47.352;8.164;2024-01-15T20:29:16;0.20;1.00
76838;DHT22;65797;47.352;8.164;2024-01-15T20:31:42;0.20;1.00
76838;DHT22;65797;47.352;8.164;2024-01-15T20:34:08;0.20;1.00
76838;DHT22;65797;47.352;8.164;2024-01-15T20:36:34;0.20;1.00
76838;DHT22;65797;47.352;8.164;2024-01-15T20:38:59;0.20;99.90
76838;DHT22;65797;47.352;8.164;2024-01-15T20:41:25;0.20;99.90
76838;DHT22;65797;47.352;8.164;2024-01-15T20:43:51;0.20;99.90
76838;DHT22;65797;47.352;8.164;2024-01-15T20:46:17;0.30;99.90
76838;DHT22;65797;47.352;8.164;2024-01-15T20:48:43;0.20;99.90
76838;DHT22;65797;47.352;8.164;2024-01-15T20:51:09;0.20;99.90
76838;DHT22;65797;47.352;8.164;2024-01-15T20:53:36;0.20;99.90
76838;DHT22;65797;47.352;8.164;2024-01-15T20:56:01;0.20;99.90
76838;DHT22;65797;47.352;8.164;2024-01-15T20:58:27;0.20;99.90
76838;DHT22;65797;47.352;8.164;2024-01-15T21:00:54;0.20;99.90
76838;DHT22;65797;47.352;8.164;2024-01-15T21:03:20;0.10;99.90
76838;DHT22;65797;47.352;8.164;2024-01-15T21:05:48;0.10;99.90
76838;DHT22;65797;47.352;8.164;2024-01-15T21:08:15;0.00;99.90
76838;DHT22;65797;47.352;8.164;2024-01-15T21:10:41;0.00;99.90